createdAt,value
2022-10-05T00:01:45.193Z,8.83
2022-10-05T00:04:15.478Z,5.70
2022-10-05T00:06:47.681Z,9.53
2022-10-05T00:09:20.939Z,7.20
2022-10-05T00:11:48.311Z,8.50
2022-10-05T00:14:16.406Z,7.53
2022-10-05T00:16:43.066Z,9.40
2022-10-05T00:19:17.851Z,6.87
2022-10-05T00:21:44.533Z,7.37
2022-10-05T00:24:11.305Z,5.93
2022-10-05T00:26:38.399Z,5.87
2022-10-05T00:29:16.934Z,9.60
2022-10-05T00:31:43.614Z,7.57
2022-10-05T00:34:10.625Z,12.93
2022-10-05T00:36:38.882Z,9.20
2022-10-05T00:39:05.400Z,11.47
2022-10-05T00:41:34.964Z,5.73
2022-10-05T00:44:10.179Z,6.77
2022-10-05T00:46:37.021Z,6.50
2022-10-05T00:49:10.275Z,8.70
2022-10-05T00:51:38.655Z,6.60
2022-10-05T00:54:22.983Z,7.47
2022-10-05T00:57:14.043Z,6.53
2022-10-05T00:59:53.627Z,5.43
2022-10-05T01:02:30.915Z,7.43
2022-10-05T01:05:12.075Z,5.63
2022-10-05T01:08:00.449Z,5.80
2022-10-05T01:10:31.900Z,7.10
2022-10-05T01:13:17.514Z,7.57
2022-10-05T01:15:51.503Z,7.57
2022-10-05T01:18:30.978Z,6.90
2022-10-05T01:21:07.826Z,8.20
2022-10-05T01:23:40.363Z,6.30
2022-10-05T01:26:08.094Z,8.67
2022-10-05T01:28:42.591Z,6.60
2022-10-05T01:31:18.485Z,8.37
2022-10-05T01:34:09.138Z,8.43
2022-10-05T01:36:44.458Z,9.33
2022-10-05T01:39:35.815Z,7.57
2022-10-05T01:42:05.385Z,7.70
2022-10-05T01:44:40.201Z,8.17
2022-10-05T01:47:07.815Z,6.70
2022-10-05T01:49:40.328Z,8.10
2022-10-05T01:52:42.557Z,7.27
2022-10-05T01:55:28.051Z,8.07
2022-10-05T01:58:14.041Z,9.77
2022-10-05T02:00:46.803Z,10.87
2022-10-05T02:03:19.437Z,8.60
2022-10-05T02:05:58.203Z,7.53
2022-10-05T02:08:32.031Z,10.27
2022-10-05T02:11:05.794Z,8.13
2022-10-05T02:13:36.301Z,8.43
2022-10-05T02:16:05.167Z,7.47
2022-10-05T02:18:38.904Z,6.10
2022-10-05T02:21:05.536Z,5.47
2022-10-05T02:23:33.992Z,6.97
2022-10-05T02:26:01.925Z,12.33
2022-10-05T02:28:39.892Z,6.63
2022-10-05T02:31:15.265Z,6.80
2022-10-05T02:33:43.144Z,7.93
2022-10-05T02:36:28.201Z,6.87
2022-10-05T02:39:00.998Z,7.77
2022-10-05T02:41:27.539Z,9.07
2022-10-05T02:44:00.185Z,8.20
2022-10-05T02:46:36.597Z,10.80
2022-10-05T02:49:22.386Z,8.57
2022-10-05T02:51:52.584Z,7.67
2022-10-05T02:54:32.218Z,6.80
2022-10-05T02:56:58.927Z,7.13
2022-10-05T02:59:25.396Z,8.73
2022-10-05T03:01:55.715Z,7.33
2022-10-05T03:04:35.915Z,8.70
2022-10-05T03:07:21.083Z,5.60
2022-10-05T03:10:07.896Z,6.50
2022-10-05T03:12:39.060Z,8.27
2022-10-05T03:15:07.254Z,8.47
2022-10-05T03:17:54.207Z,7.07
2022-10-05T03:20:44.343Z,6.83
2022-10-05T03:23:28.096Z,8.53
2022-10-05T03:26:01.286Z,9.43
2022-10-05T03:28:32.848Z,8.63
2022-10-05T03:31:06.282Z,5.90
2022-10-05T03:34:04.042Z,6.40
2022-10-05T03:36:51.047Z,6.97
2022-10-05T03:39:30.759Z,6.20
2022-10-05T03:42:04.164Z,7.30
2022-10-05T03:44:40.193Z,7.03
2022-10-05T03:47:10.462Z,6.57
2022-10-05T03:49:47.072Z,8.03
2022-10-05T03:52:17.588Z,6.93
2022-10-05T03:54:45.642Z,7.13
2022-10-05T03:57:27.018Z,10.77
2022-10-05T04:00:05.010Z,7.17
2022-10-05T04:02:43.685Z,8.13
2022-10-05T04:05:10.359Z,7.90
2022-10-05T04:07:47.027Z,8.83
2022-10-05T04:10:22.297Z,7.90
2022-10-05T04:12:54.132Z,7.33
2022-10-05T04:15:42.533Z,6.63
2022-10-05T04:18:35.958Z,8.60
2022-10-05T04:21:07.143Z,10.30
2022-10-05T04:23:37.133Z,7.03
2022-10-05T04:26:09.947Z,7.83
2022-10-05T04:28:43.385Z,6.53
2022-10-05T04:31:15.884Z,8.50
2022-10-05T04:33:45.208Z,9.20
2022-10-05T04:36:11.713Z,8.93
2022-10-05T04:38:47.446Z,7.47
2022-10-05T04:41:32.925Z,7.93
2022-10-05T04:44:00.929Z,6.57
2022-10-05T04:46:27.901Z,7.30
2022-10-05T04:49:14.255Z,7.03
2022-10-05T04:51:52.103Z,8.07
2022-10-05T04:54:39.347Z,7.53
2022-10-05T04:57:10.781Z,6.97
2022-10-05T04:59:50.100Z,8.27
2022-10-05T05:02:16.792Z,6.87
2022-10-05T05:05:03.594Z,6.53
2022-10-05T05:07:33.224Z,7.00
2022-10-05T05:10:15.985Z,8.53
2022-10-05T05:12:57.597Z,6.00
2022-10-05T05:15:27.387Z,12.17
2022-10-05T05:17:54.732Z,8.13
2022-10-05T05:20:40.698Z,5.30
2022-10-05T05:23:18.271Z,7.10
2022-10-05T05:25:45.568Z,5.30
2022-10-05T05:28:15.203Z,6.47
2022-10-05T05:30:48.529Z,5.60
2022-10-05T05:33:20.649Z,7.03
2022-10-05T05:36:10.100Z,7.90
2022-10-05T05:38:57.008Z,7.73
2022-10-05T05:41:30.038Z,8.47
2022-10-05T05:44:16.194Z,5.90
2022-10-05T05:47:03.053Z,8.73
2022-10-05T05:49:36.738Z,6.30
2022-10-05T05:52:11.632Z,6.70
2022-10-05T05:54:43.141Z,6.47
2022-10-05T05:57:32.318Z,8.43
2022-10-05T06:00:06.423Z,5.77
2022-10-05T06:03:03.153Z,9.10
2022-10-05T06:05:31.953Z,6.77
2022-10-05T06:08:12.548Z,6.63
2022-10-05T06:10:41.557Z,8.20
2022-10-05T06:13:20.480Z,10.13
2022-10-05T06:15:54.197Z,6.80
2022-10-05T06:18:25.789Z,8.87
2022-10-05T06:21:03.717Z,7.33
2022-10-05T06:23:33.985Z,7.57
2022-10-05T06:26:11.592Z,8.77
2022-10-05T06:28:41.501Z,8.23
2022-10-05T06:31:15.069Z,8.30
2022-10-05T06:33:45.457Z,9.13
2022-10-05T06:36:12.055Z,6.30
2022-10-05T06:38:47.359Z,6.33
2022-10-05T06:41:29.855Z,8.03
2022-10-05T06:44:09.759Z,6.10
2022-10-05T06:47:03.006Z,6.10
2022-10-05T06:50:18.802Z,5.73
2022-10-05T06:53:28.430Z,7.63
2022-10-05T06:56:11.654Z,8.87
2022-10-05T06:58:50.926Z,8.07
2022-10-05T07:01:22.538Z,9.47
2022-10-05T07:03:58.296Z,9.00
2022-10-05T07:06:29.487Z,6.90
2022-10-05T07:09:02.282Z,6.53
2022-10-05T07:11:32.833Z,8.10
2022-10-05T07:14:07.301Z,6.10
2022-10-05T07:16:39.038Z,6.80
2022-10-05T07:19:06.566Z,6.10
2022-10-05T07:22:09.341Z,6.70
2022-10-05T07:24:42.887Z,8.30
2022-10-05T07:27:15.675Z,7.23
2022-10-05T07:29:52.715Z,8.83
2022-10-05T07:32:22.515Z,5.57
2022-10-05T07:35:07.586Z,9.60
2022-10-05T07:37:54.054Z,7.23
2022-10-05T07:40:41.787Z,13.33
2022-10-05T07:43:40.126Z,7.53
2022-10-05T07:46:18.775Z,10.93
2022-10-05T07:49:18.041Z,8.03
2022-10-05T07:52:00.541Z,6.43
2022-10-05T07:54:46.403Z,6.80
2022-10-05T07:57:31.936Z,7.97
2022-10-05T08:00:03.105Z,10.87
2022-10-05T08:02:47.716Z,6.40
2022-10-05T08:05:24.993Z,9.50
2022-10-05T08:08:13.356Z,6.60
2022-10-05T08:10:44.506Z,6.10
2022-10-05T08:13:16.365Z,8.27
2022-10-05T08:15:46.898Z,8.93
2022-10-05T08:18:32.331Z,9.20
2022-10-05T08:20:58.976Z,7.27
2022-10-05T08:23:33.516Z,7.07
2022-10-05T08:26:06.103Z,8.93
2022-10-05T08:28:33.528Z,6.90
2022-10-05T08:31:03.355Z,8.47
2022-10-05T08:33:34.090Z,7.80
2022-10-05T08:36:12.056Z,6.50
2022-10-05T08:38:40.881Z,7.33
2022-10-05T08:41:17.617Z,8.23
2022-10-05T08:44:04.923Z,7.43
2022-10-05T08:46:43.724Z,8.37
2022-10-05T08:49:11.816Z,8.97
2022-10-05T08:51:57.388Z,6.97
2022-10-05T08:54:33.619Z,7.10
2022-10-05T08:57:15.610Z,6.30
2022-10-05T09:00:01.031Z,8.10
2022-10-05T09:02:28.523Z,8.10
2022-10-05T09:05:16.078Z,7.53
2022-10-05T09:08:01.158Z,6.83
2022-10-05T09:10:47.111Z,6.13
2022-10-05T09:13:13.616Z,6.20
2022-10-05T09:16:00.525Z,9.70
2022-10-05T09:18:39.544Z,8.10
2022-10-05T09:21:25.295Z,6.60
2022-10-05T09:24:03.085Z,6.37
2022-10-05T09:26:31.118Z,5.73
2022-10-05T09:29:16.444Z,8.07
2022-10-05T09:32:02.492Z,7.07
2022-10-05T09:34:43.034Z,6.30
2022-10-05T09:37:30.027Z,5.27
2022-10-05T09:40:08.698Z,7.13
2022-10-05T09:42:38.438Z,5.17
2022-10-05T09:45:05.044Z,5.47
2022-10-05T09:47:34.562Z,4.80
2022-10-05T09:50:07.164Z,5.70
2022-10-05T09:52:46.827Z,4.60
2022-10-05T09:55:33.779Z,3.97
2022-10-05T09:58:20.321Z,5.70
2022-10-05T10:01:08.817Z,4.83
2022-10-05T10:03:54.745Z,5.10
2022-10-05T10:06:30.165Z,4.63
2022-10-05T10:09:00.656Z,5.30
2022-10-05T10:11:40.084Z,5.53
2022-10-05T10:14:36.096Z,4.00
2022-10-05T10:17:08.423Z,4.33
2022-10-05T10:19:53.938Z,4.40
2022-10-05T10:22:26.491Z,4.90
2022-10-05T10:24:59.352Z,4.43
2022-10-05T10:28:01.584Z,3.97
2022-10-05T10:30:46.725Z,4.10
2022-10-05T10:33:18.581Z,4.23
2022-10-05T10:35:45.117Z,4.60
2022-10-05T10:38:11.594Z,3.70
2022-10-05T10:40:41.566Z,3.70
2022-10-05T10:43:11.001Z,3.27
2022-10-05T10:45:37.404Z,2.73
2022-10-05T10:48:08.103Z,3.20
2022-10-05T10:50:38.061Z,2.80
2022-10-05T10:53:10.112Z,4.73
2022-10-05T10:55:54.970Z,4.37
2022-10-05T10:58:37.038Z,3.37
2022-10-05T11:01:09.616Z,4.07
2022-10-05T11:04:00.566Z,4.33
2022-10-05T11:06:49.774Z,3.87
2022-10-05T11:09:31.942Z,5.17
2022-10-05T11:11:58.699Z,2.87
2022-10-05T11:14:43.993Z,2.80
2022-10-05T11:17:16.540Z,3.73
2022-10-05T11:20:04.773Z,3.47
2022-10-05T11:22:54.631Z,2.77
2022-10-05T11:25:26.094Z,2.43
2022-10-05T11:28:04.177Z,2.70
2022-10-05T11:30:36.959Z,2.43
2022-10-05T11:33:12.746Z,3.40
2022-10-05T11:35:59.683Z,1.60
2022-10-05T11:38:32.536Z,1.50
2022-10-05T11:41:18.044Z,1.43
2022-10-05T11:44:06.301Z,2.80
2022-10-05T11:46:34.837Z,3.27
2022-10-05T11:49:19.721Z,2.40
2022-10-05T11:51:46.902Z,1.30
2022-10-05T11:54:19.614Z,1.63
2022-10-05T11:56:53.770Z,4.07
2022-10-05T11:59:28.574Z,1.30
2022-10-05T12:01:59.279Z,1.63
2022-10-05T12:04:36.118Z,6.57
2022-10-05T12:07:02.892Z,1.90
2022-10-05T12:10:06.105Z,1.77
2022-10-05T12:12:37.559Z,1.37
2022-10-05T12:15:17.485Z,1.10
2022-10-05T12:17:47.215Z,2.90
2022-10-05T12:20:29.345Z,2.07
2022-10-05T12:23:01.779Z,5.13
2022-10-05T12:25:54.110Z,2.27
2022-10-05T12:28:24.190Z,2.00
2022-10-05T12:31:07.803Z,3.07
2022-10-05T12:33:37.751Z,2.47
2022-10-05T12:36:14.194Z,2.03
2022-10-05T12:38:44.930Z,1.57
2022-10-05T12:41:18.526Z,3.97
2022-10-05T12:43:55.373Z,3.17
2022-10-05T12:46:26.627Z,1.93
2022-10-05T12:49:18.438Z,1.80
2022-10-05T12:51:49.365Z,3.20
2022-10-05T12:54:35.172Z,2.07
2022-10-05T12:57:05.966Z,1.83
2022-10-05T12:59:32.550Z,2.23
2022-10-05T13:01:59.377Z,1.43
2022-10-05T13:04:38.659Z,1.70
2022-10-05T13:07:33.933Z,2.20
2022-10-05T13:10:18.642Z,2.30
2022-10-05T13:13:04.104Z,1.17
2022-10-05T13:15:53.948Z,3.47
2022-10-05T13:18:23.276Z,2.70
2022-10-05T13:21:08.714Z,1.47
2022-10-05T13:23:36.281Z,3.87
2022-10-05T13:26:11.877Z,1.67
2022-10-05T13:28:44.927Z,3.10
2022-10-05T13:31:15.005Z,2.10
2022-10-05T13:33:51.179Z,4.03
2022-10-05T13:36:31.257Z,4.23
2022-10-05T13:38:57.834Z,2.10
2022-10-05T13:41:48.555Z,1.57
2022-10-05T13:44:18.520Z,2.40
2022-10-05T13:47:00.785Z,5.07
2022-10-05T13:49:39.319Z,4.30
2022-10-05T13:52:19.788Z,3.60
2022-10-05T13:54:58.252Z,1.93
2022-10-05T13:57:33.449Z,3.23
2022-10-05T14:00:04.664Z,4.07
2022-10-05T14:02:39.819Z,2.03
2022-10-05T14:05:20.665Z,1.40
2022-10-05T14:08:13.597Z,2.73
2022-10-05T14:10:44.265Z,2.80
2022-10-05T14:13:19.533Z,2.70
2022-10-05T14:15:58.110Z,1.93
2022-10-05T14:18:28.300Z,2.17
2022-10-05T14:21:22.398Z,2.03
2022-10-05T14:23:52.057Z,3.40
2022-10-05T14:26:18.744Z,2.03
2022-10-05T14:28:57.208Z,3.43
2022-10-05T14:31:28.728Z,3.23
2022-10-05T14:33:55.278Z,2.27
2022-10-05T14:36:40.237Z,4.47
2022-10-05T14:39:11.584Z,1.53
2022-10-05T14:41:45.560Z,1.50
2022-10-05T14:44:28.517Z,2.00
2022-10-05T14:47:12.451Z,5.70
2022-10-05T14:50:21.237Z,2.97
2022-10-05T14:53:23.707Z,4.67
2022-10-05T14:56:19.589Z,2.50
2022-10-05T14:59:06.582Z,2.17
2022-10-05T15:01:39.993Z,4.67
2022-10-05T15:04:15.182Z,5.33
2022-10-05T15:06:56.848Z,2.30
2022-10-05T15:09:38.482Z,2.93
2022-10-05T15:12:05.754Z,1.50
2022-10-05T15:14:32.946Z,3.27
2022-10-05T15:17:29.259Z,3.03
2022-10-05T15:19:56.262Z,2.07
2022-10-05T15:22:29.993Z,1.73
2022-10-05T15:25:04.835Z,2.47
2022-10-05T15:27:45.794Z,2.77
2022-10-05T15:30:20.431Z,3.80
2022-10-05T15:35:51.569Z,4.53
2022-10-05T15:38:25.409Z,2.07
2022-10-05T15:40:59.219Z,1.43
2022-10-05T15:43:33.234Z,1.87
2022-10-05T15:46:09.594Z,2.30
2022-10-05T15:48:50.653Z,2.20
2022-10-05T15:51:26.646Z,2.97
2022-10-05T15:54:17.296Z,2.77
2022-10-05T15:56:57.775Z,2.20
2022-10-05T15:59:35.805Z,2.60
2022-10-05T16:02:07.221Z,2.43
2022-10-05T16:04:50.449Z,3.53
2022-10-05T16:07:38.781Z,2.10
2022-10-05T16:10:12.202Z,4.07
2022-10-05T16:12:58.759Z,2.70
2022-10-05T16:15:30.263Z,4.70
2022-10-05T16:18:12.968Z,3.03
2022-10-05T16:20:52.663Z,2.23
2022-10-05T16:23:40.031Z,2.77
2022-10-05T16:26:09.528Z,6.93
2022-10-05T16:28:54.475Z,2.50
2022-10-05T16:31:28.162Z,2.27
2022-10-05T16:34:07.091Z,3.33
2022-10-05T16:36:46.349Z,2.50
2022-10-05T16:39:22.860Z,2.77
2022-10-05T16:41:52.389Z,1.90
2022-10-05T16:44:34.116Z,4.67
2022-10-05T16:47:21.955Z,4.57
2022-10-05T16:49:51.770Z,4.03
2022-10-05T16:52:21.357Z,2.73
2022-10-05T16:54:51.042Z,2.13
2022-10-05T16:57:27.249Z,3.43
2022-10-05T17:00:03.620Z,1.43
2022-10-05T17:02:59.731Z,4.20
2022-10-05T17:05:39.512Z,3.43
2022-10-05T17:08:26.716Z,5.40
2022-10-05T17:10:53.480Z,2.43
2022-10-05T17:17:04.212Z,1.70
2022-10-05T17:19:37.967Z,3.87
2022-10-05T17:22:23.641Z,2.70
2022-10-05T17:25:04.108Z,2.83
2022-10-05T17:27:35.719Z,3.20
2022-10-05T17:30:21.901Z,3.83
2022-10-05T17:33:14.485Z,3.40
2022-10-05T17:35:54.223Z,2.60
2022-10-05T17:38:30.160Z,2.97
2022-10-05T17:41:00.216Z,2.80
2022-10-05T17:43:29.455Z,3.70
2022-10-05T17:45:57.328Z,3.53
2022-10-05T17:48:44.193Z,2.83
2022-10-05T17:51:34.177Z,4.00
2022-10-05T17:54:35.989Z,6.03
2022-10-05T17:57:02.819Z,3.47
2022-10-05T17:59:45.125Z,5.30
2022-10-05T18:02:17.717Z,2.50
2022-10-05T18:05:00.994Z,5.60
2022-10-05T18:07:27.709Z,5.27
2022-10-05T18:09:55.453Z,2.53
2022-10-05T18:12:24.251Z,3.03
2022-10-05T18:14:50.700Z,4.53
2022-10-05T18:17:37.757Z,6.73
2022-10-05T18:20:18.037Z,2.83
2022-10-05T18:22:47.340Z,2.37
2022-10-05T18:25:20.468Z,3.77
2022-10-05T18:27:53.216Z,6.13
2022-10-05T18:30:21.459Z,3.73
2022-10-05T18:32:51.431Z,5.83
2022-10-05T18:35:27.100Z,4.03
2022-10-05T18:38:13.893Z,5.80
2022-10-05T18:41:04.238Z,2.33
2022-10-05T18:43:35.907Z,3.57
2022-10-05T18:46:22.456Z,4.83
2022-10-05T18:48:48.922Z,4.47
2022-10-05T18:51:22.561Z,3.30
2022-10-05T18:54:08.543Z,3.13
2022-10-05T18:56:39.247Z,2.97
2022-10-05T18:59:25.536Z,3.30
2022-10-05T19:02:12.670Z,2.30
2022-10-05T19:04:58.080Z,4.37
2022-10-05T19:07:48.148Z,4.03
2022-10-05T19:10:25.411Z,4.03
2022-10-05T19:13:14.869Z,4.50
2022-10-05T19:15:41.294Z,5.70
2022-10-05T19:18:07.778Z,2.97
2022-10-05T19:20:35.666Z,4.63
2022-10-05T19:23:02.246Z,4.60
2022-10-05T19:25:36.769Z,3.90
2022-10-05T19:28:11.137Z,2.40
2022-10-05T19:30:47.384Z,5.70
2022-10-05T19:33:33.560Z,5.17
2022-10-05T19:36:05.990Z,5.53
2022-10-05T19:38:33.292Z,5.93
2022-10-05T19:41:03.014Z,3.07
2022-10-05T19:43:33.363Z,2.67
2022-10-05T19:46:05.474Z,3.10
2022-10-05T19:48:44.490Z,3.63
2022-10-05T19:51:12.915Z,5.00
2022-10-05T19:53:47.816Z,4.97
2022-10-05T19:56:22.659Z,6.30
2022-10-05T19:58:50.554Z,3.73
2022-10-05T20:01:30.881Z,4.57
2022-10-05T20:04:00.854Z,5.53
2022-10-05T20:06:30.127Z,3.43
2022-10-05T20:09:05.733Z,3.50
2022-10-05T20:11:34.667Z,2.30
2022-10-05T20:14:05.222Z,2.00
2022-10-05T20:16:53.505Z,2.13
2022-10-05T20:19:37.392Z,2.70
2022-10-05T20:22:28.063Z,4.33
2022-10-05T20:25:02.051Z,2.33
2022-10-05T20:27:35.340Z,2.07
2022-10-05T20:30:02.196Z,1.77
2022-10-05T20:32:30.694Z,2.87
2022-10-05T20:34:57.483Z,3.33
2022-10-05T20:37:26.961Z,3.73
2022-10-05T20:39:54.702Z,3.17
2022-10-05T20:42:24.290Z,2.10
2022-10-05T20:44:55.821Z,2.30
2022-10-05T20:47:23.738Z,2.97
2022-10-05T20:49:50.956Z,3.60
2022-10-05T20:52:17.529Z,1.70
2022-10-05T20:57:10.798Z,2.40
2022-10-05T20:59:43.806Z,5.77
2022-10-05T21:02:10.852Z,2.73
2022-10-05T21:04:41.695Z,3.03
2022-10-05T21:07:08.625Z,2.40
2022-10-05T21:09:37.913Z,3.37
2022-10-05T21:12:05.547Z,2.03
2022-10-05T21:14:34.213Z,3.93
2022-10-05T21:17:01.925Z,5.90
2022-10-05T21:19:29.413Z,3.70
2022-10-05T21:21:59.385Z,4.03
2022-10-05T21:24:25.937Z,1.83
2022-10-05T21:26:52.867Z,2.80
2022-10-05T21:29:19.490Z,3.03
2022-10-05T21:31:46.396Z,5.87
2022-10-05T21:34:13.114Z,4.30
2022-10-05T21:36:39.540Z,5.30
2022-10-05T21:39:06.106Z,3.83
2022-10-05T21:41:32.589Z,2.80
2022-10-05T21:43:59.058Z,2.67
2022-10-05T21:46:26.659Z,5.17
2022-10-05T21:48:54.364Z,4.27
2022-10-05T21:51:23.368Z,3.63
2022-10-05T21:53:53.595Z,2.80
2022-10-05T21:56:21.389Z,5.37
2022-10-05T21:58:48.565Z,4.20
2022-10-05T22:01:18.882Z,3.00
2022-10-05T22:03:48.371Z,4.87
2022-10-05T22:06:14.998Z,6.00
2022-10-05T22:08:43.277Z,6.57
2022-10-05T22:11:16.807Z,3.17
2022-10-05T22:13:44.765Z,3.30
2022-10-05T22:16:12.056Z,4.70
2022-10-05T22:18:40.109Z,4.77
2022-10-05T22:21:07.953Z,3.07
2022-10-05T22:23:35.938Z,6.07
2022-10-05T22:26:03.406Z,4.13
2022-10-05T22:28:32.911Z,3.17
2022-10-05T22:31:01.824Z,2.63
2022-10-05T22:33:28.463Z,2.53
2022-10-05T22:35:55.472Z,4.50
2022-10-05T22:38:21.873Z,0.77
2022-10-05T22:40:48.439Z,2.43
2022-10-05T22:43:18.023Z,5.20
2022-10-05T22:45:44.708Z,3.47
2022-10-05T22:48:11.447Z,3.37
2022-10-05T22:50:37.891Z,1.93
2022-10-05T22:53:04.521Z,5.50
2022-10-05T22:55:31.013Z,4.20
2022-10-05T22:57:57.671Z,2.37
2022-10-05T23:00:40.424Z,2.80
2022-10-05T23:03:15.136Z,2.87
2022-10-05T23:05:41.915Z,5.10
2022-10-05T23:08:08.573Z,3.13
2022-10-05T23:10:36.136Z,3.70
2022-10-05T23:13:02.748Z,2.33
2022-10-05T23:15:29.172Z,2.73
2022-10-05T23:18:00.149Z,3.70
2022-10-05T23:20:26.699Z,2.73
2022-10-05T23:22:53.746Z,3.93
2022-10-05T23:25:22.154Z,3.10
2022-10-05T23:27:48.709Z,4.63
2022-10-05T23:30:15.429Z,3.40
2022-10-05T23:32:42.730Z,3.17
2022-10-05T23:35:10.333Z,3.50
2022-10-05T23:37:40.349Z,2.57
2022-10-05T23:40:08.852Z,1.27
2022-10-05T23:42:35.742Z,2.70
2022-10-05T23:45:02.264Z,3.10
2022-10-05T23:47:29.340Z,2.37
2022-10-05T23:49:55.908Z,3.20
2022-10-05T23:52:22.419Z,2.47
2022-10-05T23:54:48.994Z,3.63
2022-10-05T23:57:16.845Z,2.27
2022-10-05T23:59:43.337Z,2.17
